sensor_id;sensor_type;location;lat;lon;timestamp;P1;durP1;ratioP1;P2;durP2;ratioP2
50757;SDS011;36732;47.980;11.652;2022-08-19T00:01:49;2.50;;;2.30;;
50757;SDS011;36732;47.980;11.652;2022-08-19T00:04:18;2.50;;;2.30;;
50757;SDS011;36732;47.980;11.652;2022-08-19T00:06:49;2.22;;;2.10;;
50757;SDS011;36732;47.980;11.652;2022-08-19T00:09:15;2.40;;;2.20;;
50757;SDS011;36732;47.980;11.652;2022-08-19T00:11:44;3.90;;;2.15;;
50757;SDS011;36732;47.980;11.652;2022-08-19T00:14:11;2.63;;;2.15;;
50757;SDS011;36732;47.980;11.652;2022-08-19T00:16:41;2.60;;;1.83;;
50757;SDS011;36732;47.980;11.652;2022-08-19T00:19:09;3.10;;;2.28;;
50757;SDS011;36732;47.980;11.652;2022-08-19T00:21:35;2.35;;;2.15;;
50757;SDS011;36732;47.980;11.652;2022-08-19T00:24:04;2.28;;;2.08;;
50757;SDS011;36732;47.980;11.652;2022-08-19T00:26:34;2.45;;;2.25;;
50757;SDS011;36732;47.980;11.652;2022-08-19T00:29:02;2.30;;;2.10;;
50757;SDS011;36732;47.980;11.652;2022-08-19T00:31:30;2.65;;;2.22;;
50757;SDS011;36732;47.980;11.652;2022-08-19T00:33:56;2.10;;;1.90;;
50757;SDS011;36732;47.980;11.652;2022-08-19T00:36:22;2.42;;;1.85;;
50757;SDS011;36732;47.980;11.652;2022-08-19T00:38:48;3.25;;;1.77;;
50757;SDS011;36732;47.980;11.652;2022-08-19T00:41:17;2.13;;;1.92;;
50757;SDS011;36732;47.980;11.652;2022-08-19T00:46:32;3.40;;;2.17;;
50757;SDS011;36732;47.980;11.652;2022-08-19T00:49:06;1.90;;;1.65;;
50757;SDS011;36732;47.980;11.652;2022-08-19T00:51:48;1.92;;;1.83;;
50757;SDS011;36732;47.980;11.652;2022-08-19T00:54:19;2.28;;;2.08;;
50757;SDS011;36732;47.980;11.652;2022-08-19T00:56:46;2.05;;;1.85;;
50757;SDS011;36732;47.980;11.652;2022-08-19T00:59:13;2.28;;;2.08;;
50757;SDS011;36732;47.980;11.652;2022-08-19T01:01:41;2.20;;;1.92;;
50757;SDS011;36732;47.980;11.652;2022-08-19T01:04:08;2.72;;;2.53;;
50757;SDS011;36732;47.980;11.652;2022-08-19T01:06:38;2.42;;;2.15;;
50757;SDS011;36732;47.980;11.652;2022-08-19T01:09:06;2.17;;;1.98;;
50757;SDS011;36732;47.980;11.652;2022-08-19T01:11:34;2.25;;;2.05;;
50757;SDS011;36732;47.980;11.652;2022-08-19T01:14:05;2.50;;;2.30;;
50757;SDS011;36732;47.980;11.652;2022-08-19T01:16:33;3.58;;;2.05;;
50757;SDS011;36732;47.980;11.652;2022-08-19T01:19:00;2.47;;;2.08;;
50757;SDS011;36732;47.980;11.652;2022-08-19T01:23:59;2.53;;;2.22;;
50757;SDS011;36732;47.980;11.652;2022-08-19T01:26:25;1.98;;;1.75;;
50757;SDS011;36732;47.980;11.652;2022-08-19T01:28:53;2.22;;;1.73;;
50757;SDS011;36732;47.980;11.652;2022-08-19T01:31:23;2.10;;;1.90;;
50757;SDS011;36732;47.980;11.652;2022-08-19T01:33:56;1.80;;;1.70;;
50757;SDS011;36732;47.980;11.652;2022-08-19T01:36:39;2.10;;;2.00;;
50757;SDS011;36732;47.980;11.652;2022-08-19T01:39:16;2.15;;;1.95;;
50757;SDS011;36732;47.980;11.652;2022-08-19T01:41:46;2.80;;;1.92;;
50757;SDS011;36732;47.980;11.652;2022-08-19T01:44:12;2.53;;;2.20;;
50757;SDS011;36732;47.980;11.652;2022-08-19T01:46:38;2.28;;;2.08;;
50757;SDS011;36732;47.980;11.652;2022-08-19T01:49:05;4.10;;;2.35;;
50757;SDS011;36732;47.980;11.652;2022-08-19T01:51:32;2.30;;;2.10;;
50757;SDS011;36732;47.980;11.652;2022-08-19T01:53:59;3.05;;;2.03;;
50757;SDS011;36732;47.980;11.652;2022-08-19T01:56:25;4.53;;;2.15;;
50757;SDS011;36732;47.980;11.652;2022-08-19T01:58:52;2.30;;;2.10;;
50757;SDS011;36732;47.980;11.652;2022-08-19T02:01:30;2.67;;;2.47;;
50757;SDS011;36732;47.980;11.652;2022-08-19T02:03:59;2.80;;;2.60;;
50757;SDS011;36732;47.980;11.652;2022-08-19T02:06:28;2.63;;;2.22;;
50757;SDS011;36732;47.980;11.652;2022-08-19T02:08:54;2.58;;;2.38;;
50757;SDS011;36732;47.980;11.652;2022-08-19T02:11:21;2.55;;;2.35;;
50757;SDS011;36732;47.980;11.652;2022-08-19T02:13:51;2.40;;;2.20;;
50757;SDS011;36732;47.980;11.652;2022-08-19T02:16:19;2.60;;;2.40;;
50757;SDS011;36732;47.980;11.652;2022-08-19T02:18:46;2.95;;;2.53;;
50757;SDS011;36732;47.980;11.652;2022-08-19T02:21:13;2.30;;;2.10;;
50757;SDS011;36732;47.980;11.652;2022-08-19T02:23:41;3.05;;;2.55;;
50757;SDS011;36732;47.980;11.652;2022-08-19T02:26:08;2.97;;;2.67;;
50757;SDS011;36732;47.980;11.652;2022-08-19T02:28:37;2.47;;;2.28;;
50757;SDS011;36732;47.980;11.652;2022-08-19T02:31:08;2.75;;;2.55;;
50757;SDS011;36732;47.980;11.652;2022-08-19T02:33:43;2.40;;;2.20;;
50757;SDS011;36732;47.980;11.652;2022-08-19T02:36:11;2.35;;;2.15;;
50757;SDS011;36732;47.980;11.652;2022-08-19T02:38:38;3.30;;;3.00;;
50757;SDS011;36732;47.980;11.652;2022-08-19T02:41:06;3.35;;;2.30;;
50757;SDS011;36732;47.980;11.652;2022-08-19T02:43:37;2.42;;;2.22;;
50757;SDS011;36732;47.980;11.652;2022-08-19T02:46:15;2.85;;;2.50;;
50757;SDS011;36732;47.980;11.652;2022-08-19T02:48:52;2.60;;;2.40;;
50757;SDS011;36732;47.980;11.652;2022-08-19T02:51:23;3.35;;;2.70;;
50757;SDS011;36732;47.980;11.652;2022-08-19T02:53:53;3.47;;;2.55;;
50757;SDS011;36732;47.980;11.652;2022-08-19T02:56:19;2.22;;;2.05;;
50757;SDS011;36732;47.980;11.652;2022-08-19T02:58:46;2.45;;;2.25;;
50757;SDS011;36732;47.980;11.652;2022-08-19T03:01:19;3.05;;;2.60;;
50757;SDS011;36732;47.980;11.652;2022-08-19T03:03:58;2.30;;;2.05;;
50757;SDS011;36732;47.980;11.652;2022-08-19T03:06:26;2.45;;;2.17;;
50757;SDS011;36732;47.980;11.652;2022-08-19T03:08:53;2.50;;;2.30;;
50757;SDS011;36732;47.980;11.652;2022-08-19T03:11:27;3.30;;;2.20;;
50757;SDS011;36732;47.980;11.652;2022-08-19T03:13:56;2.40;;;2.20;;
50757;SDS011;36732;47.980;11.652;2022-08-19T03:16:24;3.03;;;2.35;;
50757;SDS011;36732;47.980;11.652;2022-08-19T03:18:53;2.47;;;2.28;;
50757;SDS011;36732;47.980;11.652;2022-08-19T03:21:25;2.38;;;2.17;;
50757;SDS011;36732;47.980;11.652;2022-08-19T03:24:00;2.38;;;2.08;;
50757;SDS011;36732;47.980;11.652;2022-08-19T03:26:29;2.60;;;2.40;;
50757;SDS011;36732;47.980;11.652;2022-08-19T03:28:55;2.38;;;2.05;;
50757;SDS011;36732;47.980;11.652;2022-08-19T03:31:26;2.35;;;2.15;;
50757;SDS011;36732;47.980;11.652;2022-08-19T03:33:52;2.17;;;1.98;;
50757;SDS011;36732;47.980;11.652;2022-08-19T03:36:19;2.40;;;2.20;;
50757;SDS011;36732;47.980;11.652;2022-08-19T03:38:52;2.70;;;2.05;;
50757;SDS011;36732;47.980;11.652;2022-08-19T03:41:21;2.75;;;2.08;;
50757;SDS011;36732;47.980;11.652;2022-08-19T03:43:54;2.38;;;1.90;;
50757;SDS011;36732;47.980;11.652;2022-08-19T03:46:24;2.05;;;1.85;;
50757;SDS011;36732;47.980;11.652;2022-08-19T03:48:54;2.50;;;2.30;;
50757;SDS011;36732;47.980;11.652;2022-08-19T03:51:31;2.35;;;2.08;;
50757;SDS011;36732;47.980;11.652;2022-08-19T03:54:02;2.63;;;1.85;;
50757;SDS011;36732;47.980;11.652;2022-08-19T03:56:36;2.00;;;1.90;;
50757;SDS011;36732;47.980;11.652;2022-08-19T03:59:04;2.28;;;2.08;;
50757;SDS011;36732;47.980;11.652;2022-08-19T04:01:32;2.58;;;1.98;;
50757;SDS011;36732;47.980;11.652;2022-08-19T04:03:58;2.35;;;2.15;;
50757;SDS011;36732;47.980;11.652;2022-08-19T04:06:28;1.95;;;1.85;;
50757;SDS011;36732;47.980;11.652;2022-08-19T04:08:57;3.83;;;2.28;;
50757;SDS011;36732;47.980;11.652;2022-08-19T04:11:28;2.20;;;2.00;;
50757;SDS011;36732;47.980;11.652;2022-08-19T04:13:58;2.23;;;1.90;;
50757;SDS011;36732;47.980;11.652;2022-08-19T04:16:25;2.10;;;1.92;;
50757;SDS011;36732;47.980;11.652;2022-08-19T04:18:54;2.58;;;2.38;;
50757;SDS011;36732;47.980;11.652;2022-08-19T04:21:26;2.13;;;1.98;;
50757;SDS011;36732;47.980;11.652;2022-08-19T04:23:53;2.50;;;2.30;;
50757;SDS011;36732;47.980;11.652;2022-08-19T04:26:26;1.90;;;1.80;;
50757;SDS011;36732;47.980;11.652;2022-08-19T04:28:59;2.40;;;2.20;;
50757;SDS011;36732;47.980;11.652;2022-08-19T04:31:30;2.55;;;1.85;;
50757;SDS011;36732;47.980;11.652;2022-08-19T04:34:01;2.38;;;1.90;;
50757;SDS011;36732;47.980;11.652;2022-08-19T04:36:36;2.65;;;2.17;;
50757;SDS011;36732;47.980;11.652;2022-08-19T04:39:07;2.00;;;1.80;;
50757;SDS011;36732;47.980;11.652;2022-08-19T04:41:36;2.20;;;1.65;;
50757;SDS011;36732;47.980;11.652;2022-08-19T04:44:21;2.25;;;1.67;;
50757;SDS011;36732;47.980;11.652;2022-08-19T04:46:47;2.45;;;2.00;;
50757;SDS011;36732;47.980;11.652;2022-08-19T04:49:15;1.70;;;1.60;;
50757;SDS011;36732;47.980;11.652;2022-08-19T04:51:43;2.38;;;1.73;;
50757;SDS011;36732;47.980;11.652;2022-08-19T04:54:12;2.15;;;1.73;;
50757;SDS011;36732;47.980;11.652;2022-08-19T04:56:39;1.75;;;1.60;;
50757;SDS011;36732;47.980;11.652;2022-08-19T04:59:05;1.63;;;1.52;;
50757;SDS011;36732;47.980;11.652;2022-08-19T05:01:33;2.50;;;1.70;;
50757;SDS011;36732;47.980;11.652;2022-08-19T05:04:02;1.65;;;1.55;;
50757;SDS011;36732;47.980;11.652;2022-08-19T05:06:30;2.03;;;1.52;;
50757;SDS011;36732;47.980;11.652;2022-08-19T05:08:57;1.63;;;1.52;;
50757;SDS011;36732;47.980;11.652;2022-08-19T05:11:26;2.20;;;1.50;;
50757;SDS011;36732;47.980;11.652;2022-08-19T05:13:56;1.98;;;1.70;;
50757;SDS011;36732;47.980;11.652;2022-08-19T05:16:23;1.50;;;1.30;;
50757;SDS011;36732;47.980;11.652;2022-08-19T05:18:50;1.95;;;1.70;;
50757;SDS011;36732;47.980;11.652;2022-08-19T05:21:35;2.10;;;1.85;;
50757;SDS011;36732;47.980;11.652;2022-08-19T05:24:20;1.60;;;1.50;;
50757;SDS011;36732;47.980;11.652;2022-08-19T05:26:49;1.80;;;1.40;;
50757;SDS011;36732;47.980;11.652;2022-08-19T05:29:18;2.22;;;1.80;;
50757;SDS011;36732;47.980;11.652;2022-08-19T05:31:46;1.60;;;1.50;;
50757;SDS011;36732;47.980;11.652;2022-08-19T05:34:14;1.88;;;1.55;;
50757;SDS011;36732;47.980;11.652;2022-08-19T05:36:42;1.88;;;1.73;;
50757;SDS011;36732;47.980;11.652;2022-08-19T05:39:11;1.92;;;1.60;;
50757;SDS011;36732;47.980;11.652;2022-08-19T05:41:44;1.40;;;1.30;;
50757;SDS011;36732;47.980;11.652;2022-08-19T05:44:12;1.50;;;1.40;;
50757;SDS011;36732;47.980;11.652;2022-08-19T05:46:39;2.97;;;1.77;;
50757;SDS011;36732;47.980;11.652;2022-08-19T05:49:05;1.63;;;1.52;;
50757;SDS011;36732;47.980;11.652;2022-08-19T05:51:33;1.92;;;1.38;;
50757;SDS011;36732;47.980;11.652;2022-08-19T05:54:02;4.15;;;1.60;;
50757;SDS011;36732;47.980;11.652;2022-08-19T05:56:30;1.83;;;1.65;;
50757;SDS011;36732;47.980;11.652;2022-08-19T05:58:57;1.80;;;1.70;;
50757;SDS011;36732;47.980;11.652;2022-08-19T06:01:24;1.90;;;1.80;;
50757;SDS011;36732;47.980;11.652;2022-08-19T06:03:51;3.35;;;1.70;;
50757;SDS011;36732;47.980;11.652;2022-08-19T06:06:18;2.10;;;1.65;;
50757;SDS011;36732;47.980;11.652;2022-08-19T06:08:44;1.73;;;1.63;;
50757;SDS011;36732;47.980;11.652;2022-08-19T06:11:16;3.15;;;1.85;;
50757;SDS011;36732;47.980;11.652;2022-08-19T06:13:51;1.60;;;1.40;;
50757;SDS011;36732;47.980;11.652;2022-08-19T06:16:19;1.98;;;1.77;;
50757;SDS011;36732;47.980;11.652;2022-08-19T06:18:48;2.00;;;1.70;;
50757;SDS011;36732;47.980;11.652;2022-08-19T06:21:18;1.67;;;1.58;;
50757;SDS011;36732;47.980;11.652;2022-08-19T06:23:49;2.97;;;1.90;;
50757;SDS011;36732;47.980;11.652;2022-08-19T06:26:16;2.15;;;1.73;;
50757;SDS011;36732;47.980;11.652;2022-08-19T06:28:44;2.17;;;1.90;;
50757;SDS011;36732;47.980;11.652;2022-08-19T06:31:12;1.70;;;1.60;;
50757;SDS011;36732;47.980;11.652;2022-08-19T06:33:41;2.08;;;1.83;;
50757;SDS011;36732;47.980;11.652;2022-08-19T06:36:44;2.10;;;1.90;;
50757;SDS011;36732;47.980;11.652;2022-08-19T06:39:12;1.98;;;1.88;;
50757;SDS011;36732;47.980;11.652;2022-08-19T06:41:41;2.10;;;1.90;;
50757;SDS011;36732;47.980;11.652;2022-08-19T06:44:12;1.83;;;1.65;;
50757;SDS011;36732;47.980;11.652;2022-08-19T06:46:39;2.33;;;2.13;;
50757;SDS011;36732;47.980;11.652;2022-08-19T06:49:06;4.20;;;2.22;;
50757;SDS011;36732;47.980;11.652;2022-08-19T06:51:39;1.80;;;1.70;;
50757;SDS011;36732;47.980;11.652;2022-08-19T06:54:07;2.45;;;2.25;;
50757;SDS011;36732;47.980;11.652;2022-08-19T06:56:33;2.40;;;2.20;;
50757;SDS011;36732;47.980;11.652;2022-08-19T06:59:03;2.20;;;1.80;;
50757;SDS011;36732;47.980;11.652;2022-08-19T07:01:36;3.42;;;2.08;;
50757;SDS011;36732;47.980;11.652;2022-08-19T07:04:06;2.85;;;2.03;;
50757;SDS011;36732;47.980;11.652;2022-08-19T07:06:34;2.25;;;2.05;;
50757;SDS011;36732;47.980;11.652;2022-08-19T07:09:01;2.42;;;2.22;;
50757;SDS011;36732;47.980;11.652;2022-08-19T07:11:29;2.22;;;2.00;;
50757;SDS011;36732;47.980;11.652;2022-08-19T07:13:57;2.58;;;2.20;;
50757;SDS011;36732;47.980;11.652;2022-08-19T07:16:24;3.53;;;2.80;;
50757;SDS011;36732;47.980;11.652;2022-08-19T07:18:51;3.95;;;2.90;;
50757;SDS011;36732;47.980;11.652;2022-08-19T07:21:20;2.75;;;2.55;;
50757;SDS011;36732;47.980;11.652;2022-08-19T07:23:51;5.65;;;3.47;;
50757;SDS011;36732;47.980;11.652;2022-08-19T07:28:47;4.05;;;3.70;;
50757;SDS011;36732;47.980;11.652;2022-08-19T07:31:20;4.07;;;3.60;;
50757;SDS011;36732;47.980;11.652;2022-08-19T07:33:49;5.32;;;4.53;;
50757;SDS011;36732;47.980;11.652;2022-08-19T07:36:18;6.05;;;5.10;;
50757;SDS011;36732;47.980;11.652;2022-08-19T07:38:48;7.57;;;5.00;;
50757;SDS011;36732;47.980;11.652;2022-08-19T07:41:17;5.68;;;5.07;;
50757;SDS011;36732;47.980;11.652;2022-08-19T07:43:47;6.68;;;5.65;;
50757;SDS011;36732;47.980;11.652;2022-08-19T07:46:14;6.20;;;5.55;;
50757;SDS011;36732;47.980;11.652;2022-08-19T07:48:42;8.63;;;6.43;;
50757;SDS011;36732;47.980;11.652;2022-08-19T07:51:12;6.18;;;5.57;;
50757;SDS011;36732;47.980;11.652;2022-08-19T07:53:40;6.65;;;6.05;;
50757;SDS011;36732;47.980;11.652;2022-08-19T07:56:06;5.18;;;4.68;;
50757;SDS011;36732;47.980;11.652;2022-08-19T07:58:33;4.97;;;4.47;;
50757;SDS011;36732;47.980;11.652;2022-08-19T08:01:03;5.03;;;4.22;;
50757;SDS011;36732;47.980;11.652;2022-08-19T08:03:31;6.25;;;4.88;;
50757;SDS011;36732;47.980;11.652;2022-08-19T08:06:16;4.68;;;4.15;;
50757;SDS011;36732;47.980;11.652;2022-08-19T08:09:01;5.05;;;4.55;;
50757;SDS011;36732;47.980;11.652;2022-08-19T08:11:42;4.85;;;4.35;;
50757;SDS011;36732;47.980;11.652;2022-08-19T08:14:16;6.57;;;4.88;;
50757;SDS011;36732;47.980;11.652;2022-08-19T08:16:46;5.55;;;4.43;;
50757;SDS011;36732;47.980;11.652;2022-08-19T08:19:12;5.68;;;4.03;;
50757;SDS011;36732;47.980;11.652;2022-08-19T08:21:42;4.63;;;3.97;;
50757;SDS011;36732;47.980;11.652;2022-08-19T08:24:08;4.38;;;3.97;;
50757;SDS011;36732;47.980;11.652;2022-08-19T08:26:35;4.63;;;4.10;;
50757;SDS011;36732;47.980;11.652;2022-08-19T08:29:01;5.40;;;3.38;;
50757;SDS011;36732;47.980;11.652;2022-08-19T08:31:27;4.32;;;3.35;;
50757;SDS011;36732;47.980;11.652;2022-08-19T08:33:53;3.90;;;3.55;;
50757;SDS011;36732;47.980;11.652;2022-08-19T08:36:18;3.75;;;3.38;;
50757;SDS011;36732;47.980;11.652;2022-08-19T08:38:44;3.50;;;3.17;;
50757;SDS011;36732;47.980;11.652;2022-08-19T08:43:58;3.45;;;3.15;;
50757;SDS011;36732;47.980;11.652;2022-08-19T08:49:18;4.63;;;3.72;;
50757;SDS011;36732;47.980;11.652;2022-08-19T08:52:18;3.67;;;3.38;;
50757;SDS011;36732;47.980;11.652;2022-08-19T08:54:52;4.30;;;3.70;;
50757;SDS011;36732;47.980;11.652;2022-08-19T08:57:25;6.18;;;4.07;;
50757;SDS011;36732;47.980;11.652;2022-08-19T09:00:21;4.20;;;3.78;;
50757;SDS011;36732;47.980;11.652;2022-08-19T09:03:09;4.93;;;3.55;;
50757;SDS011;36732;47.980;11.652;2022-08-19T09:05:50;5.80;;;4.15;;
50757;SDS011;36732;47.980;11.652;2022-08-19T09:11:31;3.85;;;3.55;;
50757;SDS011;36732;47.980;11.652;2022-08-19T09:17:06;5.78;;;4.20;;
50757;SDS011;36732;47.980;11.652;2022-08-19T09:19:46;4.63;;;3.85;;
50757;SDS011;36732;47.980;11.652;2022-08-19T09:22:19;4.88;;;4.47;;
50757;SDS011;36732;47.980;11.652;2022-08-19T09:24:49;5.03;;;4.53;;
50757;SDS011;36732;47.980;11.652;2022-08-19T09:27:17;5.40;;;4.65;;
50757;SDS011;36732;47.980;11.652;2022-08-19T09:29:45;5.22;;;4.60;;
50757;SDS011;36732;47.980;11.652;2022-08-19T09:32:13;5.80;;;4.97;;
50757;SDS011;36732;47.980;11.652;2022-08-19T09:34:39;5.85;;;5.00;;
50757;SDS011;36732;47.980;11.652;2022-08-19T09:37:05;5.70;;;5.13;;
50757;SDS011;36732;47.980;11.652;2022-08-19T09:39:31;7.20;;;5.85;;
50757;SDS011;36732;47.980;11.652;2022-08-19T09:41:57;6.78;;;5.65;;
50757;SDS011;36732;47.980;11.652;2022-08-19T09:44:22;6.32;;;5.53;;
50757;SDS011;36732;47.980;11.652;2022-08-19T09:46:48;6.30;;;5.53;;
50757;SDS011;36732;47.980;11.652;2022-08-19T09:49:16;6.78;;;5.93;;
50757;SDS011;36732;47.980;11.652;2022-08-19T09:51:43;7.13;;;6.43;;
50757;SDS011;36732;47.980;11.652;2022-08-19T09:54:12;7.78;;;6.68;;
50757;SDS011;36732;47.980;11.652;2022-08-19T09:56:39;6.72;;;6.03;;
50757;SDS011;36732;47.980;11.652;2022-08-19T09:59:05;8.35;;;6.63;;
50757;SDS011;36732;47.980;11.652;2022-08-19T10:01:31;7.57;;;5.93;;
50757;SDS011;36732;47.980;11.652;2022-08-19T10:03:58;6.47;;;5.75;;
50757;SDS011;36732;47.980;11.652;2022-08-19T10:06:28;7.55;;;5.95;;
50757;SDS011;36732;47.980;11.652;2022-08-19T10:08:57;6.28;;;5.40;;
50757;SDS011;36732;47.980;11.652;2022-08-19T10:11:24;7.10;;;6.18;;
50757;SDS011;36732;47.980;11.652;2022-08-19T10:13:50;6.90;;;5.60;;
50757;SDS011;36732;47.980;11.652;2022-08-19T10:16:18;5.93;;;5.38;;
50757;SDS011;36732;47.980;11.652;2022-08-19T10:18:47;6.13;;;5.40;;
50757;SDS011;36732;47.980;11.652;2022-08-19T10:21:15;6.68;;;5.97;;
50757;SDS011;36732;47.980;11.652;2022-08-19T10:23:55;6.65;;;5.90;;
50757;SDS011;36732;47.980;11.652;2022-08-19T10:26:24;7.88;;;5.95;;
50757;SDS011;36732;47.980;11.652;2022-08-19T10:28:52;7.10;;;6.05;;
50757;SDS011;36732;47.980;11.652;2022-08-19T10:31:20;6.13;;;5.50;;
50757;SDS011;36732;47.980;11.652;2022-08-19T10:33:51;6.37;;;5.77;;
50757;SDS011;36732;47.980;11.652;2022-08-19T10:36:22;6.50;;;5.90;;
50757;SDS011;36732;47.980;11.652;2022-08-19T10:38:52;6.25;;;5.45;;
50757;SDS011;36732;47.980;11.652;2022-08-19T10:41:23;5.55;;;4.82;;
50757;SDS011;36732;47.980;11.652;2022-08-19T10:44:01;5.28;;;4.78;;
50757;SDS011;36732;47.980;11.652;2022-08-19T10:46:35;5.90;;;4.90;;
50757;SDS011;36732;47.980;11.652;2022-08-19T10:51:34;4.07;;;3.63;;
50757;SDS011;36732;47.980;11.652;2022-08-19T10:54:19;5.15;;;4.40;;
50757;SDS011;36732;47.980;11.652;2022-08-19T10:56:45;4.63;;;4.20;;
50757;SDS011;36732;47.980;11.652;2022-08-19T10:59:18;4.75;;;3.80;;
50757;SDS011;36732;47.980;11.652;2022-08-19T11:01:54;4.40;;;4.00;;
50757;SDS011;36732;47.980;11.652;2022-08-19T11:04:25;4.25;;;3.75;;
50757;SDS011;36732;47.980;11.652;2022-08-19T11:06:51;4.03;;;3.63;;
50757;SDS011;36732;47.980;11.652;2022-08-19T11:09:18;4.20;;;3.45;;
50757;SDS011;36732;47.980;11.652;2022-08-19T11:11:52;3.47;;;3.10;;
50757;SDS011;36732;47.980;11.652;2022-08-19T11:14:19;3.50;;;3.20;;
50757;SDS011;36732;47.980;11.652;2022-08-19T11:16:49;3.55;;;3.25;;
50757;SDS011;36732;47.980;11.652;2022-08-19T11:19:18;3.55;;;3.20;;
50757;SDS011;36732;47.980;11.652;2022-08-19T11:21:45;3.30;;;3.00;;
50757;SDS011;36732;47.980;11.652;2022-08-19T11:24:14;2.95;;;2.70;;
50757;SDS011;36732;47.980;11.652;2022-08-19T11:26:43;3.47;;;3.17;;
50757;SDS011;36732;47.980;11.652;2022-08-19T11:29:10;2.83;;;2.63;;
50757;SDS011;36732;47.980;11.652;2022-08-19T11:31:38;2.78;;;2.58;;
50757;SDS011;36732;47.980;11.652;2022-08-19T11:34:07;3.72;;;3.42;;
50757;SDS011;36732;47.980;11.652;2022-08-19T11:36:38;3.28;;;2.97;;
50757;SDS011;36732;47.980;11.652;2022-08-19T11:39:09;3.55;;;2.40;;
50757;SDS011;36732;47.980;11.652;2022-08-19T11:41:37;2.78;;;2.58;;
50757;SDS011;36732;47.980;11.652;2022-08-19T11:44:04;3.25;;;2.95;;
50757;SDS011;36732;47.980;11.652;2022-08-19T11:46:30;3.03;;;2.72;;
50757;SDS011;36732;47.980;11.652;2022-08-19T11:48:59;5.20;;;3.22;;
50757;SDS011;36732;47.980;11.652;2022-08-19T11:51:26;3.58;;;3.28;;
50757;SDS011;36732;47.980;11.652;2022-08-19T11:53:52;2.67;;;2.47;;
50757;SDS011;36732;47.980;11.652;2022-08-19T11:56:20;2.80;;;2.60;;
50757;SDS011;36732;47.980;11.652;2022-08-19T11:58:48;2.70;;;2.50;;
50757;SDS011;36732;47.980;11.652;2022-08-19T12:01:15;3.45;;;2.78;;
50757;SDS011;36732;47.980;11.652;2022-08-19T12:03:44;3.20;;;2.40;;
50757;SDS011;36732;47.980;11.652;2022-08-19T12:06:13;2.72;;;2.53;;
50757;SDS011;36732;47.980;11.652;2022-08-19T12:08:42;15.13;;;3.40;;
50757;SDS011;36732;47.980;11.652;2022-08-19T12:11:09;8.32;;;3.17;;
50757;SDS011;36732;47.980;11.652;2022-08-19T12:13:37;4.78;;;2.53;;
50757;SDS011;36732;47.980;11.652;2022-08-19T12:16:08;3.15;;;2.53;;
50757;SDS011;36732;47.980;11.652;2022-08-19T12:18:37;2.58;;;2.38;;
50757;SDS011;36732;47.980;11.652;2022-08-19T12:21:04;3.22;;;2.22;;
50757;SDS011;36732;47.980;11.652;2022-08-19T12:23:29;3.70;;;2.25;;
50757;SDS011;36732;47.980;11.652;2022-08-19T12:25:55;2.03;;;1.90;;
50757;SDS011;36732;47.980;11.652;2022-08-19T12:28:22;2.25;;;2.08;;
50757;SDS011;36732;47.980;11.652;2022-08-19T12:30:49;2.80;;;2.10;;
50757;SDS011;36732;47.980;11.652;2022-08-19T12:33:16;1.58;;;1.48;;
50757;SDS011;36732;47.980;11.652;2022-08-19T12:35:45;2.05;;;1.60;;
50757;SDS011;36732;47.980;11.652;2022-08-19T12:38:11;1.83;;;1.73;;
50757;SDS011;36732;47.980;11.652;2022-08-19T12:40:38;3.33;;;3.03;;
50757;SDS011;36732;47.980;11.652;2022-08-19T12:43:07;3.80;;;3.50;;
50757;SDS011;36732;47.980;11.652;2022-08-19T12:45:33;4.70;;;4.22;;
50757;SDS011;36732;47.980;11.652;2022-08-19T12:48:00;4.18;;;3.60;;
50757;SDS011;36732;47.980;11.652;2022-08-19T12:50:25;4.28;;;3.83;;
50757;SDS011;36732;47.980;11.652;2022-08-19T12:52:51;4.70;;;4.18;;
50757;SDS011;36732;47.980;11.652;2022-08-19T12:55:17;3.63;;;3.33;;
50757;SDS011;36732;47.980;11.652;2022-08-19T12:57:43;3.85;;;3.40;;
50757;SDS011;36732;47.980;11.652;2022-08-19T13:00:11;3.42;;;3.13;;
50757;SDS011;36732;47.980;11.652;2022-08-19T13:02:42;4.10;;;2.65;;
50757;SDS011;36732;47.980;11.652;2022-08-19T13:05:11;2.42;;;2.22;;
50757;SDS011;36732;47.980;11.652;2022-08-19T13:07:47;2.80;;;2.60;;
50757;SDS011;36732;47.980;11.652;2022-08-19T13:10:15;2.63;;;2.42;;
50757;SDS011;36732;47.980;11.652;2022-08-19T13:12:45;3.35;;;2.30;;
50757;SDS011;36732;47.980;11.652;2022-08-19T13:15:14;2.20;;;2.03;;
50757;SDS011;36732;47.980;11.652;2022-08-19T13:17:45;2.22;;;2.03;;
50757;SDS011;36732;47.980;11.652;2022-08-19T13:20:14;1.63;;;1.52;;
50757;SDS011;36732;47.980;11.652;2022-08-19T13:22:42;2.00;;;1.80;;
50757;SDS011;36732;47.980;11.652;2022-08-19T13:25:10;2.13;;;1.60;;
50757;SDS011;36732;47.980;11.652;2022-08-19T13:27:37;1.50;;;1.40;;
50757;SDS011;36732;47.980;11.652;2022-08-19T13:30:05;1.35;;;1.25;;
50757;SDS011;36732;47.980;11.652;2022-08-19T13:32:51;1.67;;;1.15;;
50757;SDS011;36732;47.980;11.652;2022-08-19T13:35:35;1.92;;;1.25;;
50757;SDS011;36732;47.980;11.652;2022-08-19T13:38:14;0.93;;;0.93;;
50757;SDS011;36732;47.980;11.652;2022-08-19T13:40:43;0.70;;;0.70;;
50757;SDS011;36732;47.980;11.652;2022-08-19T13:43:10;0.65;;;0.65;;
50757;SDS011;36732;47.980;11.652;2022-08-19T13:45:35;0.73;;;0.63;;
50757;SDS011;36732;47.980;11.652;2022-08-19T13:48:03;0.57;;;0.57;;
50757;SDS011;36732;47.980;11.652;2022-08-19T13:50:33;2.05;;;0.80;;
50757;SDS011;36732;47.980;11.652;2022-08-19T13:53:08;0.68;;;0.68;;
50757;SDS011;36732;47.980;11.652;2022-08-19T13:55:39;0.68;;;0.68;;
50757;SDS011;36732;47.980;11.652;2022-08-19T13:58:07;1.02;;;0.85;;
50757;SDS011;36732;47.980;11.652;2022-08-19T14:00:36;0.70;;;0.70;;
50757;SDS011;36732;47.980;11.652;2022-08-19T14:03:05;0.88;;;0.80;;
50757;SDS011;36732;47.980;11.652;2022-08-19T14:05:31;1.35;;;0.60;;
50757;SDS011;36732;47.980;11.652;2022-08-19T14:07:58;0.95;;;0.82;;
50757;SDS011;36732;47.980;11.652;2022-08-19T14:10:25;0.50;;;0.50;;
50757;SDS011;36732;47.980;11.652;2022-08-19T14:12:54;0.73;;;0.70;;
50757;SDS011;36732;47.980;11.652;2022-08-19T14:15:23;0.52;;;0.52;;
50757;SDS011;36732;47.980;11.652;2022-08-19T14:17:49;0.82;;;0.80;;
50757;SDS011;36732;47.980;11.652;2022-08-19T14:20:15;1.00;;;0.90;;
50757;SDS011;36732;47.980;11.652;2022-08-19T14:22:42;0.98;;;0.90;;
50757;SDS011;36732;47.980;11.652;2022-08-19T14:25:11;0.80;;;0.60;;
50757;SDS011;36732;47.980;11.652;2022-08-19T14:27:41;0.70;;;0.70;;
50757;SDS011;36732;47.980;11.652;2022-08-19T14:30:08;1.23;;;1.02;;
50757;SDS011;36732;47.980;11.652;2022-08-19T14:32:36;0.60;;;0.60;;
50757;SDS011;36732;47.980;11.652;2022-08-19T14:35:02;0.50;;;0.50;;
50757;SDS011;36732;47.980;11.652;2022-08-19T14:37:30;0.60;;;0.60;;
50757;SDS011;36732;47.980;11.652;2022-08-19T14:39:55;0.52;;;0.52;;
50757;SDS011;36732;47.980;11.652;2022-08-19T14:42:21;0.85;;;0.85;;
50757;SDS011;36732;47.980;11.652;2022-08-19T14:44:47;0.60;;;0.60;;
50757;SDS011;36732;47.980;11.652;2022-08-19T14:47:13;1.20;;;0.63;;
50757;SDS011;36732;47.980;11.652;2022-08-19T14:49:39;1.00;;;0.90;;
50757;SDS011;36732;47.980;11.652;2022-08-19T14:52:04;0.65;;;0.65;;
50757;SDS011;36732;47.980;11.652;2022-08-19T14:54:31;0.80;;;0.80;;
50757;SDS011;36732;47.980;11.652;2022-08-19T14:56:57;2.08;;;0.80;;
50757;SDS011;36732;47.980;11.652;2022-08-19T14:59:23;1.00;;;0.75;;
50757;SDS011;36732;47.980;11.652;2022-08-19T15:01:48;0.98;;;0.75;;
50757;SDS011;36732;47.980;11.652;2022-08-19T15:04:14;0.80;;;0.70;;
50757;SDS011;36732;47.980;11.652;2022-08-19T15:06:40;0.73;;;0.70;;
50757;SDS011;36732;47.980;11.652;2022-08-19T15:09:07;0.70;;;0.57;;